ホノルル の空港の天気 - METARとTAF

ホノルル国際空港 ( PHNL / HNL ) - アメリカ ハワイ州ホノルル
飛行場実況気象(Metar)
観測時間04/21 06:53 HST (04/21 16:53 UTC)
風向・風速東北東 5m/s
視程10km以上
天気現象
全天の4割程度の雲 雲底高度 910m
全天の8割程度の雲 雲底高度 1520m
気温22.2℃
湿度79%
気圧1021.4hPa
METARPHNL 211653Z 07010KT 10SM SCT030 BKN050 22/18 A3016 RMK AO2 SLP214 T02220183 VISNO RWY04R $
過去の天気等 Google飛行場航空写真 Wunderground天気予報

過去48時間のMETAR

飛行場予報(TAF)
発表時間: 4/21 04:56 HST (4/21 14:56 UTC)
予報対象時間: 21日5時 HST ~ 22日8時 HST
風向・風速東北東 6m/s
視程10km以上
天気現象周辺でしゅう雨
少しの雲 雲底高度 610m
全天の4割程度の雲 雲底高度 1070m
全天の8割程度の雲 雲底高度 1520m
21日10時 HST から
風向・風速東北東 7m/s 瞬間風速 11m/s
視程10km以上
少しの雲 雲底高度 760m
全天の4割程度の雲 雲底高度 1370m
21日20時 HST から
風向・風速東北東 5m/s
視程10km以上
少しの雲 雲底高度 760m
全天の4割程度の雲 雲底高度 1370m
PHNL 211456Z 2115/2218 06012KT P6SM VCSH FEW020 SCT035 BKN050
FM212000 06014G22KT P6SM FEW025 SCT045
FM220600 06010KT P6SM FEW025 SCT045